Details From CYPX - Puvirnituq
To CYYQ - Churchill
Flight Number -
Tags Standard
Created
Modified
Stats Distance 522 nm / 967 km
Max Altitude 35,000 ft / 10,668 m
Waypoints 5
Social Downloads 26
Likes 0
Share

Download

Looking for another format? Having issues loading an existing format? Contact us
Advertisement - Login to hide

Notes

None

Route

CYPX MIBNA VIMSA YYQ CYYQ

ID Type Via Altitude (ft/m) Position (lat/lon) Dist (leg/tot) Name
O CYPX APT - 74 / 23 60.05042 / -77.28694 - / 0 nm PUVIRNITUQ
MIBNA FIX - 35,000 / 10,668 60.08333 / -80.00000 81 / 81 nm
VIMSA FIX - 35,000 / 10,668 59.16667 / -90.00000 308 / 389 nm
YYQ VOR - 1,427 / 435 58.74167 / -94.13528 130 / 520 nm CHURCHILL VOR-DME
O CYYQ APT - 94 / 29 58.73450 / -94.06657 2 / 522 nm

Altitude Profile

Advertisement - Login to hide

Weather


0- 5 10 15 20 25 30 35+ Temperature / °C

Clouds and Precipitation
Forecast for 2021-01-22 06:00 UTC. Updated 2 hours ago

Ground ~20,000 ft ~40,000 ft Winds

CYPX

Details ICAO CYPX (YPX)
Name PUVIRNITUQ
Region Canada
Timezone America/Montreal (UTC-5.0)
Stats Elevation 74 ft / 23 m (AMSL)
Location 60.050400° -77.286900°
Runways 1
Magnetic Variation 19.160° W

METAR

CYPX 220500Z AUTO 29014KT 8SM -SN OVC028 M14/M15 A2954 RMK SLP006

Decode

TAF

TAF CYPX 212338Z 2200/2212 30020KT 3SM -SN SCT012 OVC025 TEMPO 2200/2210 1SM -SHSN BR BLSN VV010 PROB30 2200/2210 3/4SM -SHSN BLSN FM221000 28015KT 6SM -SN SCT015 OVC030 TEMPO 2210/2212 2SM -SHSN BR VV015 RMK FCST BASED ON AUTO OBS. NXT FCST BY 220600Z

Decode

Departure Runways

ID Width Length Bearing (true/mag) Surface Threshold Overrun Markings Lighting
01 100 ft / 30 m 4,971 ft / 1,515 m 343.44° / 2.60° GRAVEL 0 ft / 0 m 0 ft / 0 m VISUAL EDGE THRESHOLD REIL-OMNI
19 100 ft / 30 m 4,971 ft / 1,515 m 163.44° / 182.60° GRAVEL 0 ft / 0 m 0 ft / 0 m VISUAL EDGE THRESHOLD TDZ REIL-OMNI

CYYQ

Details ICAO CYYQ (YYQ)
Name CHURCHILL
Region Canada
Timezone America/Winnipeg (UTC-6.0)
Stats Elevation 94 ft / 29 m (AMSL)
Location 58.744000° -94.063900°
Runways 2
Magnetic Variation 2.045° W

METAR

CYYQ 220500Z 25005KT 15SM SCT040 M29/M32 A3005 RMK SC3 SLP182

Decode

TAF

TAF TAF CYYQ 212338Z 2200/2224 26005KT P6SM BKN012 TEMPO 2200/2206 SCT012 FM220600 25005KT P6SM SCT008 BKN015 BKN040 TEMPO 2206/2224 4SM -SN BKN008 OVC012 RMK NXT FCST BY 220600Z

Decode

Destination Runways

ID Width Length Bearing (true/mag) Surface Threshold Overrun Markings Lighting
07 100 ft / 30 m 3,988 ft / 1,215 m 70.97° / 73.02° GRAVEL 0 ft / 0 m 0 ft / 0 m VISUAL EDGE THRESHOLD
15 160 ft / 49 m 9,178 ft / 2,797 m 152.64° / 154.68° ASPHALT 0 ft / 0 m 0 ft / 0 m APP EDGE THRESHOLD REIL-OMNI
25 100 ft / 30 m 3,988 ft / 1,215 m 250.99° / 253.04° GRAVEL 0 ft / 0 m 0 ft / 0 m VISUAL EDGE THRESHOLD REIL-OMNI
33 160 ft / 49 m 9,178 ft / 2,797 m 332.66° / 334.70° ASPHALT 0 ft / 0 m 0 ft / 0 m APP EDGE THRESHOLD SSALR

Popular Alternatives